Time;durP1;ratioP1;P1;durP2;ratioP2;P2;SDS_P1;SDS_P2;PMS_P1;PMS_P2;Temp;Humidity;BMP_temperature;BMP_pressure;BME280_temperature;BME280_humidity;BME280_pressure;Samples;Min_cycle;Max_cycle;Signal;HPM_P1;HPM_P2
2021/11/24 00:01:52;;;;;;;35.60;15.60;;;;;;;;;;5073893;28;20052;-60
2021/11/24 00:04:19;;;;;;;33.33;15.57;;;;;;;;;;5073463;28;20544;-60
2021/11/24 00:06:46;;;;;;;29.65;14.93;;;;;;;;;;5073449;28;20059;-61
2021/11/24 00:09:13;;;;;;;34.30;15.00;;;;;;;;;;5073696;28;20048;-61
2021/11/24 00:11:40;;;;;;;33.08;15.05;;;;;;;;;;5073407;28;20056;-61
2021/11/24 00:14:06;;;;;;;34.78;13.48;;;;;;;;;;5073460;28;20055;-59
2021/11/24 00:16:34;;;;;;;33.40;15.45;;;;;;;;;;5073365;28;20091;-61
2021/11/24 00:19:02;;;;;;;36.08;15.48;;;;;;;;;;5073748;28;20468;-61
2021/11/24 00:21:29;;;;;;;38.53;16.75;;;;;;;;;;5073131;28;20044;-59
2021/11/24 00:23:56;;;;;;;35.78;15.32;;;;;;;;;;5073371;28;20048;-59
2021/11/24 00:26:23;;;;;;;34.15;14.75;;;;;;;;;;5072880;28;20055;-60
2021/11/24 00:28:50;;;;;;;34.58;14.60;;;;;;;;;;5073350;28;20054;-61
2021/11/24 00:31:17;;;;;;;33.13;14.70;;;;;;;;;;5073107;28;20048;-60
2021/11/24 00:33:44;;;;;;;33.47;15.18;;;;;;;;;;5073056;28;20048;-59
2021/11/24 00:36:12;;;;;;;32.13;14.77;;;;;;;;;;5072887;28;20056;-59
2021/11/24 00:38:39;;;;;;;35.45;15.85;;;;;;;;;;5073053;28;20044;-60
2021/11/24 00:41:06;;;;;;;36.92;16.02;;;;;;;;;;5073062;28;20055;-60
2021/11/24 00:43:33;;;;;;;35.10;15.13;;;;;;;;;;5072952;28;20621;-61
2021/11/24 00:46:00;;;;;;;33.60;15.45;;;;;;;;;;5073046;28;20055;-60
2021/11/24 00:48:27;;;;;;;33.45;14.60;;;;;;;;;;5072743;28;20045;-60
2021/11/24 00:50:54;;;;;;;37.00;16.10;;;;;;;;;;5072809;28;20063;-59
2021/11/24 00:53:22;;;;;;;34.72;14.65;;;;;;;;;;5072769;28;20482;-58
2021/11/24 00:55:49;;;;;;;34.08;15.80;;;;;;;;;;5072920;28;20044;-60
2021/11/24 00:58:17;;;;;;;34.15;15.82;;;;;;;;;;5072902;28;20049;-58
2021/11/24 01:00:44;;;;;;;33.78;15.98;;;;;;;;;;5073473;28;20523;-60
2021/11/24 01:03:11;;;;;;;37.20;15.85;;;;;;;;;;5072746;28;20045;-60
2021/11/24 01:05:38;;;;;;;33.20;16.00;;;;;;;;;;5072919;28;20044;-60
2021/11/24 01:08:05;;;;;;;33.08;15.05;;;;;;;;;;5072601;28;20052;-60
2021/11/24 01:10:34;;;;;;;54.95;22.17;;;;;;;;;;5072580;28;20055;-60
2021/11/24 01:13:01;;;;;;;57.10;25.13;;;;;;;;;;5072412;28;20543;-59
2021/11/24 01:15:28;;;;;;;36.70;15.75;;;;;;;;;;5072028;28;20055;-59
2021/11/24 01:17:55;;;;;;;32.08;15.52;;;;;;;;;;5072004;28;20516;-59
2021/11/24 01:20:22;;;;;;;32.97;15.05;;;;;;;;;;5072974;28;20060;-60
2021/11/24 01:22:49;;;;;;;29.70;14.10;;;;;;;;;;5072631;28;20052;-60
2021/11/24 01:25:16;;;;;;;32.00;15.05;;;;;;;;;;5072488;28;20051;-60
2021/11/24 01:27:44;;;;;;;34.90;15.45;;;;;;;;;;5072456;28;20426;-60
2021/11/24 01:30:13;;;;;;;29.80;14.55;;;;;;;;;;5072595;28;20045;-60
2021/11/24 01:32:41;;;;;;;32.30;14.23;;;;;;;;;;5072121;28;20511;-60
2021/11/24 01:35:09;;;;;;;32.33;14.65;;;;;;;;;;5072075;28;20044;-60
2021/11/24 01:37:36;;;;;;;33.17;14.90;;;;;;;;;;5072405;28;20044;-60
2021/11/24 01:40:05;;;;;;;33.50;15.18;;;;;;;;;;5072215;28;20405;-60
2021/11/24 01:42:33;;;;;;;35.25;16.67;;;;;;;;;;5072225;28;20082;-58
2021/11/24 01:45:02;;;;;;;31.15;15.25;;;;;;;;;;5071659;28;20054;-60
2021/11/24 01:47:29;;;;;;;34.03;15.68;;;;;;;;;;5071826;28;20382;-60
2021/11/24 01:49:56;;;;;;;35.08;15.63;;;;;;;;;;5072054;28;20463;-60
2021/11/24 01:52:23;;;;;;;37.80;15.73;;;;;;;;;;5071817;28;20055;-59
2021/11/24 01:54:50;;;;;;;33.42;14.70;;;;;;;;;;5071801;28;20504;-60
2021/11/24 01:57:17;;;;;;;34.80;15.30;;;;;;;;;;5072004;28;20044;-59
2021/11/24 01:59:45;;;;;;;39.47;16.42;;;;;;;;;;5072097;28;20049;-60
2021/11/24 02:02:13;;;;;;;35.40;14.52;;;;;;;;;;5071856;28;20147;-62
2021/11/24 02:04:40;;;;;;;37.78;15.57;;;;;;;;;;5071572;28;20133;-59
2021/11/24 02:07:07;;;;;;;33.50;14.90;;;;;;;;;;5071744;28;20391;-61
2021/11/24 02:09:34;;;;;;;36.97;16.52;;;;;;;;;;5071645;28;20048;-60
2021/11/24 02:12:01;;;;;;;38.65;15.60;;;;;;;;;;5071540;28;20056;-60
2021/11/24 02:14:29;;;;;;;38.90;16.60;;;;;;;;;;5070187;28;20048;-59
2021/11/24 02:19:34;;;;;;;42.03;17.30;;;;;;;;;;5176797;22;20052;-78
2021/11/24 02:22:04;;;;;;;41.67;17.77;;;;;;;;;;5056790;28;20106;-78
2021/11/24 02:24:33;;;;;;;42.42;16.55;;;;;;;;;;5053396;28;20072;-78
2021/11/24 02:27:00;;;;;;;47.42;19.08;;;;;;;;;;5062578;28;20048;-77
2021/11/24 02:29:27;;;;;;;49.70;18.95;;;;;;;;;;5071336;28;20045;-75
2021/11/24 02:31:57;;;;;;;53.10;19.75;;;;;;;;;;5058341;28;20621;-76
2021/11/24 02:34:24;;;;;;;52.40;19.33;;;;;;;;;;5055789;28;20049;-78
2021/11/24 02:36:51;;;;;;;51.65;19.25;;;;;;;;;;5056057;28;20091;-78
2021/11/24 02:39:19;;;;;;;47.63;18.63;;;;;;;;;;5055626;28;20048;-78
2021/11/24 02:41:46;;;;;;;54.17;21.33;;;;;;;;;;5055496;28;20045;-76
2021/11/24 02:44:20;;;;;;;79.88;29.40;;;;;;;;;;5055680;28;20049;-76
2021/11/24 02:46:48;;;;;;;57.50;21.38;;;;;;;;;;5055419;28;20461;-76
2021/11/24 02:49:15;;;;;;;56.42;20.63;;;;;;;;;;5055024;28;20053;-76
2021/11/24 02:51:44;;;;;;;54.90;20.55;;;;;;;;;;5055396;28;20090;-77
2021/11/24 02:54:11;;;;;;;55.45;21.20;;;;;;;;;;5055219;28;20045;-77
2021/11/24 02:56:40;;;;;;;59.83;20.23;;;;;;;;;;5055099;28;20045;-77
2021/11/24 02:59:08;;;;;;;56.20;21.42;;;;;;;;;;5054953;28;20052;-76
2021/11/24 03:01:35;;;;;;;61.55;22.20;;;;;;;;;;5055117;28;20040;-77
2021/11/24 03:04:02;;;;;;;58.65;20.88;;;;;;;;;;5054804;28;20408;-76
2021/11/24 03:06:29;;;;;;;58.45;21.60;;;;;;;;;;5054978;28;20094;-77
2021/11/24 03:08:55;;;;;;;58.83;21.48;;;;;;;;;;5054507;28;20098;-77
2021/11/24 03:11:22;;;;;;;60.47;20.67;;;;;;;;;;5055220;28;20049;-77
2021/11/24 03:13:50;;;;;;;58.85;22.42;;;;;;;;;;5054725;28;20045;-76
2021/11/24 03:16:17;;;;;;;56.65;20.20;;;;;;;;;;5054793;28;20049;-77
2021/11/24 03:18:44;;;;;;;57.05;21.27;;;;;;;;;;5054215;28;20048;-76
2021/11/24 03:21:10;;;;;;;69.18;23.48;;;;;;;;;;5055171;28;20053;-78
2021/11/24 03:23:37;;;;;;;58.00;21.27;;;;;;;;;;5054416;28;20110;-76
2021/11/24 03:26:04;;;;;;;64.72;23.33;;;;;;;;;;5054663;28;20045;-78
2021/11/24 03:28:31;;;;;;;60.95;21.85;;;;;;;;;;5054665;28;20044;-77
2021/11/24 03:30:59;;;;;;;65.07;21.33;;;;;;;;;;5054599;28;20102;-77
2021/11/24 03:33:26;;;;;;;57.00;20.42;;;;;;;;;;5054433;28;20045;-77
2021/11/24 03:35:52;;;;;;;63.85;22.35;;;;;;;;;;5054761;28;20041;-77
2021/11/24 03:38:19;;;;;;;53.75;19.75;;;;;;;;;;5055847;28;20143;-77
2021/11/24 03:40:46;;;;;;;56.90;21.95;;;;;;;;;;5053668;28;20045;-76
2021/11/24 03:43:13;;;;;;;59.22;19.20;;;;;;;;;;5054419;28;20642;-76
2021/11/24 03:45:40;;;;;;;59.65;21.80;;;;;;;;;;5054242;28;20053;-77
2021/11/24 03:48:08;;;;;;;54.58;20.25;;;;;;;;;;5054096;28;20067;-78
2021/11/24 03:50:35;;;;;;;61.22;20.67;;;;;;;;;;5053951;28;20049;-77
2021/11/24 03:53:02;;;;;;;59.50;20.88;;;;;;;;;;5054399;28;20045;-77
2021/11/24 03:55:29;;;;;;;59.45;21.27;;;;;;;;;;5054253;28;20091;-76
2021/11/24 03:57:58;;;;;;;69.82;24.05;;;;;;;;;;5053756;28;20550;-78
2021/11/24 04:00:26;;;;;;;68.35;22.60;;;;;;;;;;5053656;28;20515;-76
2021/11/24 04:02:52;;;;;;;64.45;21.27;;;;;;;;;;5053739;28;20045;-76
2021/11/24 04:05:21;;;;;;;69.13;23.90;;;;;;;;;;5054028;28;20099;-76
2021/11/24 04:07:48;;;;;;;61.72;22.55;;;;;;;;;;5054237;28;20147;-76
2021/11/24 04:10:16;;;;;;;69.93;23.70;;;;;;;;;;5053688;28;20049;-78
2021/11/24 04:12:43;;;;;;;66.35;21.00;;;;;;;;;;5054016;28;20045;-78
2021/11/24 04:15:11;;;;;;;61.70;21.02;;;;;;;;;;5053978;28;20423;-77
2021/11/24 04:17:39;;;;;;;65.57;22.83;;;;;;;;;;5053192;28;20120;-77
2021/11/24 04:20:09;;;;;;;65.63;23.30;;;;;;;;;;5053297;28;20503;-76
2021/11/24 04:22:37;;;;;;;67.68;22.77;;;;;;;;;;5053688;28;20045;-76
2021/11/24 04:25:05;;;;;;;63.72;21.75;;;;;;;;;;5053628;28;20049;-76
2021/11/24 04:27:33;;;;;;;64.07;22.38;;;;;;;;;;5053112;28;20640;-76
2021/11/24 04:29:59;;;;;;;66.63;22.50;;;;;;;;;;5053563;28;20110;-76
2021/11/24 04:32:26;;;;;;;72.13;22.98;;;;;;;;;;5053048;28;20045;-77
2021/11/24 04:34:53;;;;;;;68.07;23.27;;;;;;;;;;5053268;28;20098;-77
2021/11/24 04:37:20;;;;;;;66.22;22.75;;;;;;;;;;5053219;28;20557;-76
2021/11/24 04:39:48;;;;;;;68.65;23.70;;;;;;;;;;5053012;28;20411;-76
2021/11/24 04:42:15;;;;;;;69.95;22.95;;;;;;;;;;5057064;28;20113;-78
2021/11/24 04:44:41;;;;;;;68.18;22.52;;;;;;;;;;5065887;28;20053;-77
2021/11/24 04:47:08;;;;;;;63.50;22.45;;;;;;;;;;5062012;28;20052;-78
2021/11/24 04:49:35;;;;;;;70.07;23.35;;;;;;;;;;5058934;28;20151;-78
2021/11/24 04:52:02;;;;;;;63.15;23.40;;;;;;;;;;5058806;28;20102;-78
2021/11/24 04:54:29;;;;;;;66.88;21.30;;;;;;;;;;5058988;28;20049;-78
2021/11/24 04:56:57;;;;;;;68.97;24.38;;;;;;;;;;5058529;28;20488;-77
2021/11/24 04:59:24;;;;;;;60.55;22.13;;;;;;;;;;5057875;28;20045;-78
2021/11/24 05:01:51;;;;;;;62.00;21.23;;;;;;;;;;5072314;28;20048;-76
2021/11/24 05:04:20;;;;;;;67.07;21.98;;;;;;;;;;5072113;28;20053;-77
2021/11/24 05:06:47;;;;;;;59.90;22.02;;;;;;;;;;5073188;28;20105;-77
2021/11/24 05:09:14;;;;;;;62.00;20.98;;;;;;;;;;5067236;28;20040;-76
2021/11/24 05:11:42;;;;;;;58.83;20.35;;;;;;;;;;5073944;28;20079;-75
2021/11/24 05:14:15;;;;;;;57.50;21.08;;;;;;;;;;5062964;28;20041;-77
2021/11/24 05:16:45;;;;;;;57.90;19.95;;;;;;;;;;5059100;28;20480;-78
2021/11/24 05:19:17;;;;;;;55.50;18.90;;;;;;;;;;5057747;28;20048;-78
2021/11/24 05:21:45;;;;;;;56.63;18.20;;;;;;;;;;5055914;28;20063;-78
2021/11/24 05:24:12;;;;;;;58.63;19.98;;;;;;;;;;5056772;28;20041;-78
2021/11/24 05:26:39;;;;;;;52.20;17.23;;;;;;;;;;5056477;28;20045;-78
2021/11/24 05:29:05;;;;;;;52.75;18.35;;;;;;;;;;5056766;28;20076;-77
2021/11/24 05:31:33;;;;;;;49.67;17.85;;;;;;;;;;5056262;28;20075;-78
2021/11/24 05:34:00;;;;;;;48.40;16.25;;;;;;;;;;5053928;28;20385;-79
2021/11/24 05:36:27;;;;;;;45.85;15.65;;;;;;;;;;5053922;28;20072;-79
2021/11/24 05:38:54;;;;;;;46.70;14.48;;;;;;;;;;5054056;28;20048;-79
2021/11/24 05:41:21;;;;;;;48.97;15.98;;;;;;;;;;5055551;28;20106;-77
2021/11/24 05:43:48;;;;;;;46.25;15.27;;;;;;;;;;5056819;28;20103;-79
2021/11/24 05:46:16;;;;;;;49.47;14.75;;;;;;;;;;5056295;28;20099;-78
2021/11/24 05:48:46;;;;;;;47.83;16.30;;;;;;;;;;5056125;28;20483;-78
2021/11/24 05:51:13;;;;;;;40.42;15.15;;;;;;;;;;5056320;28;20136;-77
2021/11/24 05:53:40;;;;;;;45.53;14.30;;;;;;;;;;5056052;28;20045;-77
2021/11/24 05:56:07;;;;;;;40.45;13.95;;;;;;;;;;5056346;28;20045;-77
2021/11/24 05:58:33;;;;;;;46.50;15.05;;;;;;;;;;5057778;28;20049;-78
2021/11/24 06:01:00;;;;;;;42.92;15.07;;;;;;;;;;5059088;28;20633;-80
2021/11/24 06:03:27;;;;;;;49.97;15.95;;;;;;;;;;5060563;28;20041;-78
2021/11/24 06:05:56;;;;;;;47.15;15.18;;;;;;;;;;5062640;28;20657;-78
2021/11/24 06:08:23;;;;;;;51.10;16.33;;;;;;;;;;5063933;28;20045;-76
2021/11/24 06:10:50;;;;;;;54.63;17.13;;;;;;;;;;5063943;28;20511;-78
2021/11/24 06:13:17;;;;;;;55.28;17.05;;;;;;;;;;5062984;28;20491;-75
2021/11/24 06:15:44;;;;;;;52.22;17.45;;;;;;;;;;5063543;28;20041;-77
2021/11/24 06:18:11;;;;;;;51.75;15.77;;;;;;;;;;5065340;28;20048;-77
2021/11/24 06:20:39;;;;;;;45.97;16.23;;;;;;;;;;5070400;28;20071;-76
2021/11/24 06:23:08;;;;;;;55.63;18.38;;;;;;;;;;5071800;28;20048;-76
2021/11/24 06:25:35;;;;;;;45.47;15.35;;;;;;;;;;5071462;28;20048;-76
2021/11/24 06:28:03;;;;;;;49.53;16.30;;;;;;;;;;5070136;28;20041;-77
2021/11/24 06:30:30;;;;;;;45.75;16.00;;;;;;;;;;5065189;28;20458;-79
2021/11/24 06:32:56;;;;;;;42.30;14.57;;;;;;;;;;5062442;28;20079;-79
2021/11/24 06:35:23;;;;;;;45.92;14.88;;;;;;;;;;5062892;28;20128;-76
2021/11/24 06:37:50;;;;;;;38.63;13.23;;;;;;;;;;5063559;28;20057;-77
2021/11/24 06:40:18;;;;;;;40.17;14.52;;;;;;;;;;5063299;28;20496;-79
2021/11/24 06:42:45;;;;;;;40.33;15.38;;;;;;;;;;5061949;28;20049;-80
2021/11/24 06:45:14;;;;;;;38.10;14.23;;;;;;;;;;5063328;28;20052;-78
2021/11/24 06:47:41;;;;;;;31.63;12.45;;;;;;;;;;5063538;28;20045;-77
2021/11/24 06:50:10;;;;;;;40.55;14.73;;;;;;;;;;5063780;28;20048;-77
2021/11/24 06:52:37;;;;;;;40.33;13.90;;;;;;;;;;5063762;28;20106;-78
2021/11/24 06:55:05;;;;;;;40.85;14.80;;;;;;;;;;5063250;28;20045;-79
2021/11/24 06:57:33;;;;;;;37.88;13.85;;;;;;;;;;5062875;28;20045;-78
2021/11/24 07:00:00;;;;;;;42.67;15.60;;;;;;;;;;5062352;28;20049;-78
2021/11/24 07:02:26;;;;;;;46.20;16.48;;;;;;;;;;5062478;28;20053;-76
2021/11/24 07:04:53;;;;;;;44.63;16.75;;;;;;;;;;5064063;28;20049;-76
2021/11/24 07:07:20;;;;;;;43.97;15.02;;;;;;;;;;5069463;28;20051;-76
2021/11/24 07:09:46;;;;;;;41.45;14.23;;;;;;;;;;5065464;28;20053;-77
2021/11/24 07:12:13;;;;;;;35.30;14.48;;;;;;;;;;5062860;28;20041;-77
2021/11/24 07:14:41;;;;;;;42.13;15.48;;;;;;;;;;5059222;28;20136;-77
2021/11/24 07:17:09;;;;;;;43.47;15.38;;;;;;;;;;5063019;28;20538;-78
2021/11/24 07:19:36;;;;;;;41.38;16.00;;;;;;;;;;5062684;28;20523;-80
2021/11/24 07:22:03;;;;;;;40.47;14.48;;;;;;;;;;5062810;28;20098;-77
2021/11/24 07:24:30;;;;;;;41.65;16.33;;;;;;;;;;5062894;28;20071;-78
2021/11/24 07:26:56;;;;;;;41.75;15.45;;;;;;;;;;5062096;28;20127;-79
2021/11/24 07:29:24;;;;;;;41.20;15.18;;;;;;;;;;5055535;28;20106;-78
2021/11/24 07:31:53;;;;;;;41.33;14.32;;;;;;;;;;5059409;28;20127;-77
2021/11/24 07:34:20;;;;;;;45.40;16.58;;;;;;;;;;5060305;28;20532;-76
2021/11/24 07:36:46;;;;;;;37.42;14.90;;;;;;;;;;5063129;28;20562;-77
2021/11/24 07:39:13;;;;;;;40.92;14.20;;;;;;;;;;5066159;28;20075;-77
2021/11/24 07:41:40;;;;;;;40.78;14.38;;;;;;;;;;5063149;28;20047;-77
2021/11/24 07:44:07;;;;;;;39.45;14.05;;;;;;;;;;5060127;28;20052;-77
2021/11/24 07:46:34;;;;;;;38.63;14.20;;;;;;;;;;5058227;28;20045;-78
2021/11/24 07:49:02;;;;;;;39.65;14.32;;;;;;;;;;5057671;28;20041;-79
2021/11/24 07:51:29;;;;;;;38.55;14.07;;;;;;;;;;5067131;28;20059;-78
2021/11/24 07:53:56;;;;;;;33.55;14.25;;;;;;;;;;5074331;28;20049;-78
2021/11/24 07:56:23;;;;;;;37.05;15.82;;;;;;;;;;5062848;28;20187;-78
2021/11/24 07:58:50;;;;;;;41.63;14.60;;;;;;;;;;5061390;28;20354;-79
2021/11/24 08:01:17;;;;;;;38.25;15.05;;;;;;;;;;5061012;28;20052;-77
2021/11/24 08:03:44;;;;;;;41.03;14.93;;;;;;;;;;5053300;28;20527;-77
2021/11/24 08:06:12;;;;;;;38.55;14.45;;;;;;;;;;5052055;28;20083;-77
2021/11/24 08:08:39;;;;;;;35.33;14.82;;;;;;;;;;5052394;28;20045;-76
2021/11/24 08:11:06;;;;;;;35.90;13.57;;;;;;;;;;5052163;28;20067;-77
2021/11/24 08:13:33;;;;;;;37.90;13.65;;;;;;;;;;5052714;28;20041;-78
2021/11/24 08:16:00;;;;;;;39.15;15.50;;;;;;;;;;5052313;28;20053;-77
2021/11/24 08:18:26;;;;;;;40.90;14.35;;;;;;;;;;5052662;28;20109;-78
2021/11/24 08:20:53;;;;;;;32.72;12.88;;;;;;;;;;5052077;28;20049;-78
2021/11/24 08:23:22;;;;;;;36.80;14.75;;;;;;;;;;5053791;28;20037;-78
2021/11/24 08:25:49;;;;;;;35.25;14.98;;;;;;;;;;5052874;28;20045;-78
2021/11/24 08:28:16;;;;;;;37.20;14.38;;;;;;;;;;5051490;28;20041;-78
2021/11/24 08:30:43;;;;;;;35.47;14.10;;;;;;;;;;5054619;28;20040;-79
2021/11/24 08:33:10;;;;;;;35.50;13.35;;;;;;;;;;5053423;28;20151;-78
2021/11/24 08:35:37;;;;;;;37.88;15.52;;;;;;;;;;5050259;28;20097;-80
2021/11/24 08:38:04;;;;;;;37.95;15.18;;;;;;;;;;5049113;28;20504;-79
2021/11/24 08:40:32;;;;;;;39.22;14.02;;;;;;;;;;5049675;28;20036;-79
2021/11/24 08:42:59;;;;;;;31.30;12.90;;;;;;;;;;5051068;28;20049;-79
2021/11/24 08:45:26;;;;;;;31.67;13.13;;;;;;;;;;5052496;28;20072;-79
2021/11/24 08:47:53;;;;;;;34.63;13.07;;;;;;;;;;5052604;28;20460;-81
2021/11/24 08:50:21;;;;;;;33.28;12.52;;;;;;;;;;5051119;28;20049;-79
2021/11/24 08:52:49;;;;;;;32.53;13.60;;;;;;;;;;5048962;28;20504;-79
2021/11/24 08:55:16;;;;;;;34.38;13.00;;;;;;;;;;5050720;28;20045;-79
2021/11/24 08:57:45;;;;;;;33.90;13.95;;;;;;;;;;5051194;28;20041;-79
2021/11/24 09:00:15;;;;;;;31.92;13.35;;;;;;;;;;5048098;28;20049;-77
2021/11/24 09:02:42;;;;;;;45.80;17.52;;;;;;;;;;5046336;28;20057;-78
2021/11/24 09:05:09;;;;;;;46.67;19.08;;;;;;;;;;5046993;28;20114;-78
2021/11/24 09:07:36;;;;;;;41.67;16.52;;;;;;;;;;5047894;28;20107;-79
2021/11/24 09:10:05;;;;;;;36.45;14.02;;;;;;;;;;5051188;28;20053;-79
2021/11/24 09:12:32;;;;;;;33.60;14.63;;;;;;;;;;5051488;28;20057;-79
2021/11/24 09:15:01;;;;;;;33.05;13.60;;;;;;;;;;5050728;28;20049;-79
2021/11/24 09:17:27;;;;;;;31.67;13.43;;;;;;;;;;5050724;28;20057;-78
2021/11/24 09:19:55;;;;;;;31.02;12.85;;;;;;;;;;5048890;28;20117;-79
2021/11/24 09:22:23;;;;;;;36.38;13.75;;;;;;;;;;5047906;28;20049;-78
2021/11/24 09:24:54;;;;;;;30.50;12.52;;;;;;;;;;5048339;28;20064;-79
2021/11/24 09:27:29;;;;;;;31.90;12.20;;;;;;;;;;5049741;28;20053;-77
2021/11/24 09:29:56;;;;;;;34.17;12.45;;;;;;;;;;5057362;28;20482;-81
2021/11/24 09:32:25;;;;;;;31.33;12.32;;;;;;;;;;5050785;28;20052;-78
2021/11/24 09:34:52;;;;;;;34.20;13.38;;;;;;;;;;5048767;28;20056;-78
2021/11/24 09:37:20;;;;;;;27.15;11.65;;;;;;;;;;5047351;28;20052;-77
2021/11/24 09:39:47;;;;;;;29.98;11.77;;;;;;;;;;5045523;28;20048;-77
2021/11/24 09:42:17;;;;;;;26.80;10.70;;;;;;;;;;5046643;28;20044;-78
2021/11/24 09:44:46;;;;;;;26.38;11.77;;;;;;;;;;5046221;28;20053;-80
2021/11/24 09:47:15;;;;;;;26.92;10.73;;;;;;;;;;5046642;28;20052;-78
2021/11/24 09:49:46;;;;;;;27.52;11.88;;;;;;;;;;5046480;28;20057;-79
2021/11/24 09:52:14;;;;;;;27.65;10.77;;;;;;;;;;5046180;28;20128;-77
2021/11/24 09:54:42;;;;;;;30.55;11.50;;;;;;;;;;5046094;28;20049;-78
2021/11/24 09:57:09;;;;;;;26.75;10.85;;;;;;;;;;5045945;28;20123;-78
2021/11/24 09:59:36;;;;;;;22.60;9.50;;;;;;;;;;5045242;28;20514;-77
2021/11/24 10:02:04;;;;;;;28.80;11.07;;;;;;;;;;5046524;28;20702;-77
2021/11/24 10:04:32;;;;;;;27.00;10.07;;;;;;;;;;5047538;28;20400;-81
2021/11/24 10:07:01;;;;;;;25.65;10.63;;;;;;;;;;5046573;28;20431;-78
2021/11/24 10:09:28;;;;;;;24.10;10.82;;;;;;;;;;5046412;28;20045;-79
2021/11/24 10:11:55;;;;;;;26.60;10.70;;;;;;;;;;5047228;28;20052;-78
2021/11/24 10:14:25;;;;;;;24.63;10.40;;;;;;;;;;5046125;28;20447;-79
2021/11/24 10:17:03;;;;;;;25.20;9.88;;;;;;;;;;5046272;28;20056;-78
2021/11/24 10:19:30;;;;;;;23.17;9.35;;;;;;;;;;5045543;28;20041;-78
2021/11/24 10:22:03;;;;;;;37.03;16.23;;;;;;;;;;5045972;28;20044;-78
2021/11/24 10:24:32;;;;;;;27.92;11.85;;;;;;;;;;5046795;28;20041;-76
2021/11/24 10:27:02;;;;;;;21.10;10.18;;;;;;;;;;5049387;28;20049;-78
2021/11/24 10:29:29;;;;;;;26.98;11.48;;;;;;;;;;5050951;28;20106;-76
2021/11/24 10:31:58;;;;;;;33.47;15.20;;;;;;;;;;5053823;28;20053;-78
2021/11/24 10:34:27;;;;;;;22.83;10.27;;;;;;;;;;5069087;28;20131;-77
2021/11/24 10:37:01;;;;;;;19.42;8.35;;;;;;;;;;5058233;28;20053;-77
2021/11/24 10:39:31;;;;;;;25.50;10.02;;;;;;;;;;5051547;28;20060;-78
2021/11/24 10:42:06;;;;;;;24.08;9.60;;;;;;;;;;5056751;28;20059;-76
2021/11/24 10:44:34;;;;;;;25.30;10.27;;;;;;;;;;5056845;28;20044;-78
2021/11/24 10:47:03;;;;;;;25.80;11.00;;;;;;;;;;5055376;28;20057;-78
2021/11/24 10:49:37;;;;;;;22.42;9.77;;;;;;;;;;5059253;28;20104;-78
2021/11/24 10:52:30;;;;;;;23.45;9.68;;;;;;;;;;5064803;28;20048;-77
2021/11/24 10:55:06;;;;;;;26.45;10.40;;;;;;;;;;5047046;28;20048;-78
2021/11/24 10:57:34;;;;;;;27.25;10.13;;;;;;;;;;5062040;28;20052;-77
2021/11/24 11:00:09;;;;;;;25.23;9.52;;;;;;;;;;5062335;28;20055;-77
2021/11/24 11:02:38;;;;;;;22.58;10.25;;;;;;;;;;5062750;28;20048;-76
2021/11/24 11:05:09;;;;;;;25.20;10.50;;;;;;;;;;5061484;28;20048;-79
2021/11/24 11:07:37;;;;;;;;;;;;;;;;;;5063943;28;20254;-80
2021/11/24 11:10:10;;;;;;;28.65;10.25;;;;;;;;;;5066024;28;19921;-76
2021/11/24 11:12:42;;;;;;;24.17;9.48;;;;;;;;;;5063627;28;20048;-77
2021/11/24 11:15:19;;;;;;;30.30;11.35;;;;;;;;;;5058571;28;20049;-76
2021/11/24 11:17:52;;;;;;;31.17;11.38;;;;;;;;;;5066710;28;20064;-76
2021/11/24 11:20:20;;;;;;;79.05;32.30;;;;;;;;;;5062399;28;20056;-80
2021/11/24 11:22:53;;;;;;;29.27;11.55;;;;;;;;;;5062409;28;20040;-80
2021/11/24 11:25:21;;;;;;;31.42;12.05;;;;;;;;;;5060572;28;20559;-79
2021/11/24 11:27:49;;;;;;;34.55;12.88;;;;;;;;;;5057525;28;20036;-82
2021/11/24 11:30:17;;;;;;;32.72;12.15;;;;;;;;;;5057330;28;20060;-79
2021/11/24 11:32:44;;;;;;;32.72;12.73;;;;;;;;;;5057616;28;20049;-79
2021/11/24 11:35:11;;;;;;;37.47;13.05;;;;;;;;;;5059099;28;20083;-77
2021/11/24 11:37:38;;;;;;;40.28;13.95;;;;;;;;;;5059633;28;20056;-78
2021/11/24 11:40:06;;;;;;;34.28;13.15;;;;;;;;;;5061364;28;20041;-78
2021/11/24 11:42:35;;;;;;;36.13;11.93;;;;;;;;;;5059913;28;20060;-76
2021/11/24 11:45:05;;;;;;;37.90;13.38;;;;;;;;;;5059477;28;20143;-77
2021/11/24 11:47:46;;;;;;;35.47;12.10;;;;;;;;;;5059432;28;20041;-77
2021/11/24 11:50:14;;;;;;;38.03;12.63;;;;;;;;;;5066495;28;20277;-76
2021/11/24 11:52:41;;;;;;;34.65;12.50;;;;;;;;;;5061611;28;20052;-77
2021/11/24 11:55:20;;;;;;;37.97;14.23;;;;;;;;;;5060494;28;20049;-77
2021/11/24 11:57:49;;;;;;;31.85;11.45;;;;;;;;;;5057829;28;20250;-76
2021/11/24 12:00:16;;;;;;;35.70;11.93;;;;;;;;;;5059297;28;20695;-77
2021/11/24 12:02:50;;;;;;;29.65;11.77;;;;;;;;;;5053547;28;20049;-77
2021/11/24 12:05:18;;;;;;;36.88;13.25;;;;;;;;;;5052570;28;20041;-79
2021/11/24 12:08:07;;;;;;;38.42;13.70;;;;;;;;;;5052079;28;20053;-79
2021/11/24 12:10:57;;;;;;;30.80;12.73;;;;;;;;;;5056543;28;20075;-77
2021/11/24 12:13:32;;;;;;;36.17;12.68;;;;;;;;;;5059750;28;20488;-77
2021/11/24 12:15:59;;;;;;;35.15;13.75;;;;;;;;;;5047591;28;20507;-79
2021/11/24 12:18:28;;;;;;;37.17;14.15;;;;;;;;;;5047460;28;20132;-78
2021/11/24 12:20:57;;;;;;;32.78;12.93;;;;;;;;;;5047753;28;20139;-78
2021/11/24 12:23:26;;;;;;;31.73;11.98;;;;;;;;;;5048155;28;20095;-78
2021/11/24 12:25:55;;;;;;;33.85;13.10;;;;;;;;;;5049191;28;20041;-78
2021/11/24 12:28:24;;;;;;;30.80;11.57;;;;;;;;;;5050095;28;20041;-79
2021/11/24 12:31:07;;;;;;;30.02;11.32;;;;;;;;;;5048372;28;20132;-79
2021/11/24 12:33:52;;;;;;;32.15;11.98;;;;;;;;;;5050057;28;20214;-79
2021/11/24 12:36:23;;;;;;;29.60;11.88;;;;;;;;;;5050459;28;20701;-78
2021/11/24 12:38:53;;;;;;;36.72;13.65;;;;;;;;;;5050979;28;20559;-78
2021/11/24 12:41:24;;;;;;;30.27;12.27;;;;;;;;;;5051822;28;20087;-78
2021/11/24 12:43:53;;;;;;;31.23;11.90;;;;;;;;;;5050436;28;20049;-78
2021/11/24 12:46:23;;;;;;;24.92;10.77;;;;;;;;;;5050618;28;20057;-78
2021/11/24 12:48:52;;;;;;;32.72;11.48;;;;;;;;;;5050697;28;20132;-78
2021/11/24 12:51:25;;;;;;;26.65;10.43;;;;;;;;;;5051511;28;20048;-77
2021/11/24 12:54:10;;;;;;;29.92;11.90;;;;;;;;;;5051121;28;20109;-77
2021/11/24 12:56:39;;;;;;;26.27;11.35;;;;;;;;;;5051734;28;20048;-78
2021/11/24 12:59:09;;;;;;;36.70;12.75;;;;;;;;;;5053275;28;20064;-78
2021/11/24 13:01:39;;;;;;;38.33;13.50;;;;;;;;;;5050197;28;20053;-76
2021/11/24 13:04:10;;;;;;;35.03;12.77;;;;;;;;;;5050261;28;20286;-76
2021/11/24 13:06:42;;;;;;;31.67;11.25;;;;;;;;;;5049061;28;20530;-77
2021/11/24 13:09:16;;;;;;;26.25;11.40;;;;;;;;;;5050610;28;20057;-77
2021/11/24 13:11:51;;;;;;;30.88;11.05;;;;;;;;;;5062877;28;20041;-76
2021/11/24 13:14:22;;;;;;;28.33;10.73;;;;;;;;;;5068463;28;20033;-76
2021/11/24 13:17:01;;;;;;;;;;;;;;;;;;5065140;28;20079;-77
2021/11/24 13:19:35;;;;;;;27.02;10.80;;;;;;;;;;5051371;28;19929;-77
2021/11/24 13:22:02;;;;;;;26.40;10.98;;;;;;;;;;5049461;28;20135;-78
2021/11/24 13:24:29;;;;;;;26.95;10.40;;;;;;;;;;5049105;28;20470;-77
2021/11/24 13:26:57;;;;;;;32.70;12.60;;;;;;;;;;5049363;28;20075;-78
2021/11/24 13:29:28;;;;;;;33.08;12.35;;;;;;;;;;5048556;28;20044;-76
2021/11/24 13:32:05;;;;;;;28.85;11.00;;;;;;;;;;5049465;28;20049;-79
2021/11/24 13:34:32;;;;;;;28.65;9.73;;;;;;;;;;5048891;28;20053;-77
2021/11/24 13:36:59;;;;;;;31.80;11.20;;;;;;;;;;5049208;28;20102;-77
2021/11/24 13:39:27;;;;;;;27.13;11.23;;;;;;;;;;5048281;28;20496;-77
2021/11/24 13:42:07;;;;;;;28.05;12.60;;;;;;;;;;5049214;28;20048;-75
2021/11/24 13:44:34;;;;;;;30.80;11.13;;;;;;;;;;5048356;28;20135;-76
2021/11/24 13:47:06;;;;;;;25.50;9.98;;;;;;;;;;5048629;28;20500;-76
2021/11/24 13:49:34;;;;;;;30.85;11.07;;;;;;;;;;5049116;28;20049;-77
2021/11/24 13:52:03;;;;;;;25.80;10.60;;;;;;;;;;5049375;28;20045;-78
2021/11/24 13:54:30;;;;;;;28.23;11.25;;;;;;;;;;5049307;28;20179;-79
2021/11/24 13:57:00;;;;;;;33.92;11.18;;;;;;;;;;5048545;28;20683;-79
2021/11/24 13:59:29;;;;;;;30.65;11.73;;;;;;;;;;5050119;28;20484;-77
2021/11/24 14:02:01;;;;;;;29.92;11.00;;;;;;;;;;5048860;28;20052;-78
2021/11/24 14:04:30;;;;;;;29.65;11.02;;;;;;;;;;5046168;28;20040;-77
2021/11/24 14:07:06;;;;;;;29.33;10.88;;;;;;;;;;5046904;28;20611;-78
2021/11/24 14:09:34;;;;;;;33.55;12.00;;;;;;;;;;5053809;28;20057;-76
2021/11/24 14:12:07;;;;;;;27.60;11.77;;;;;;;;;;5056866;28;20132;-78
2021/11/24 14:15:00;;;;;;;32.80;13.25;;;;;;;;;;5057743;28;20048;-78
2021/11/24 14:17:35;;;;;;;38.22;14.32;;;;;;;;;;5054065;28;20262;-78
2021/11/24 14:20:07;;;;;;;32.65;12.60;;;;;;;;;;5018739;28;1155027;-78
2021/11/24 14:22:43;;;;;;;32.17;11.63;;;;;;;;;;5061285;28;20084;-77
2021/11/24 14:25:13;;;;;;;23.45;10.02;;;;;;;;;;5066056;28;20049;-77
2021/11/24 14:27:41;;;;;;;35.10;12.02;;;;;;;;;;5068050;28;20037;-77
2021/11/24 14:30:09;;;;;;;30.48;11.77;;;;;;;;;;5068795;28;20056;-78